createdAt,value
2023-11-07T00:00:21.403Z,19.75
2023-11-07T00:03:09.763Z,19.77
2023-11-07T00:05:58.036Z,19.75
2023-11-07T00:08:45.383Z,19.75
2023-11-07T00:11:32.095Z,19.74
2023-11-07T00:14:22.564Z,19.74
2023-11-07T00:17:09.552Z,19.74
2023-11-07T00:19:57.950Z,19.72
2023-11-07T00:22:46.814Z,19.72
2023-11-07T00:25:34.045Z,19.71
2023-11-07T00:28:21.326Z,19.72
2023-11-07T00:31:08.150Z,19.71
2023-11-07T00:33:55.573Z,19.72
2023-11-07T00:36:42.577Z,19.70
2023-11-07T00:39:30.974Z,19.71
2023-11-07T00:42:17.706Z,19.72
2023-11-07T00:45:05.718Z,19.71
2023-11-07T00:47:53.457Z,19.73
2023-11-07T00:50:40.335Z,19.69
2023-11-07T00:53:27.372Z,19.73
2023-11-07T00:56:17.396Z,19.75
2023-11-07T00:59:05.180Z,19.75
2023-11-07T01:01:51.829Z,19.74
2023-11-07T01:04:40.592Z,19.73
2023-11-07T01:07:27.572Z,19.70
2023-11-07T01:10:14.727Z,19.73
2023-11-07T01:13:05.144Z,19.72
2023-11-07T01:15:51.728Z,19.72
2023-11-07T01:18:38.199Z,19.74
2023-11-07T01:21:25.364Z,19.76
2023-11-07T01:24:14.265Z,19.76
2023-11-07T01:27:01.145Z,19.77
2023-11-07T01:29:49.824Z,19.78
2023-11-07T01:32:39.001Z,19.79
2023-11-07T01:35:26.438Z,19.79
2023-11-07T01:38:12.615Z,19.77
2023-11-07T01:40:59.404Z,19.78
2023-11-07T01:43:47.186Z,19.77
2023-11-07T01:46:35.919Z,19.77
2023-11-07T01:49:22.429Z,19.74
2023-11-07T01:52:09.420Z,19.74
2023-11-07T01:54:56.962Z,19.75
2023-11-07T01:57:46.219Z,19.76
2023-11-07T02:00:35.541Z,19.74
2023-11-07T02:03:24.263Z,19.75
2023-11-07T02:06:11.632Z,19.76
2023-11-07T02:08:58.545Z,19.73
2023-11-07T02:11:45.946Z,19.73
2023-11-07T02:14:36.782Z,19.74
2023-11-07T02:17:25.535Z,19.76
2023-11-07T02:20:15.274Z,19.74
2023-11-07T02:23:04.988Z,19.73
2023-11-07T02:25:54.263Z,19.72
2023-11-07T02:28:41.499Z,19.73
2023-11-07T02:31:28.182Z,19.73
2023-11-07T02:34:16.942Z,19.71
2023-11-07T02:37:06.218Z,19.69
2023-11-07T02:39:53.090Z,19.69
2023-11-07T02:42:41.315Z,19.69
2023-11-07T02:45:28.133Z,19.66
2023-11-07T02:48:14.769Z,19.67
2023-11-07T02:51:01.334Z,19.69
2023-11-07T02:53:48.841Z,19.70
2023-11-07T02:56:35.853Z,19.70
2023-11-07T02:59:23.868Z,19.75
2023-11-07T03:02:10.957Z,19.72
2023-11-07T03:04:59.434Z,19.74
2023-11-07T03:07:46.298Z,19.73
2023-11-07T03:10:36.101Z,19.71
2023-11-07T03:13:23.853Z,19.73
2023-11-07T03:16:12.054Z,19.71
2023-11-07T03:18:58.528Z,19.70
2023-11-07T03:21:47.194Z,19.72
2023-11-07T03:24:34.174Z,19.73
2023-11-07T03:27:21.544Z,19.71
2023-11-07T03:30:08.962Z,19.71
2023-11-07T03:32:57.972Z,19.74
2023-11-07T03:35:47.729Z,19.72
2023-11-07T03:38:35.202Z,19.72
2023-11-07T03:41:23.826Z,19.73
2023-11-07T03:44:10.778Z,19.76
2023-11-07T03:46:57.021Z,19.73
2023-11-07T03:49:44.950Z,19.73
2023-11-07T03:52:31.424Z,19.70
2023-11-07T03:55:18.256Z,19.73
2023-11-07T03:58:05.482Z,19.72
2023-11-07T04:00:51.856Z,19.69
2023-11-07T04:03:38.556Z,19.73
2023-11-07T04:06:27.158Z,19.72
2023-11-07T04:09:14.735Z,19.71
2023-11-07T04:12:01.289Z,19.72
2023-11-07T04:14:48.209Z,19.71
2023-11-07T04:17:36.114Z,19.68
2023-11-07T04:20:24.276Z,19.67
2023-11-07T04:23:12.371Z,19.68
2023-11-07T04:26:00.459Z,19.69
2023-11-07T04:28:47.682Z,19.68
2023-11-07T04:31:35.045Z,19.67
2023-11-07T04:34:23.042Z,19.69
2023-11-07T04:37:09.634Z,19.68
2023-11-07T04:39:57.543Z,19.68
2023-11-07T04:42:47.450Z,19.69
2023-11-07T04:45:36.121Z,19.70
2023-11-07T04:48:24.294Z,19.69
2023-11-07T04:51:14.229Z,19.69
2023-11-07T04:54:00.930Z,19.70
2023-11-07T04:56:49.722Z,19.68
2023-11-07T04:59:38.055Z,19.68
2023-11-07T05:02:26.727Z,19.68
2023-11-07T05:05:16.040Z,19.70
2023-11-07T05:08:05.983Z,19.69
2023-11-07T05:10:52.719Z,19.73
2023-11-07T05:13:42.400Z,19.70
2023-11-07T05:16:29.002Z,19.68
2023-11-07T05:19:16.349Z,19.68
2023-11-07T05:22:06.027Z,19.64
2023-11-07T05:24:53.332Z,19.66
2023-11-07T05:27:39.626Z,19.68
2023-11-07T05:30:27.988Z,19.69
2023-11-07T05:33:17.111Z,19.69
2023-11-07T05:36:04.085Z,19.66
2023-11-07T05:38:51.062Z,19.67
2023-11-07T05:41:40.183Z,19.67
2023-11-07T05:44:27.277Z,19.68
2023-11-07T05:47:15.319Z,19.68
2023-11-07T05:50:02.522Z,19.66
2023-11-07T05:52:50.276Z,19.66
2023-11-07T05:55:39.356Z,19.69
2023-11-07T05:58:26.344Z,19.65
2023-11-07T06:01:14.347Z,19.67
2023-11-07T06:04:02.845Z,19.68
2023-11-07T06:06:49.776Z,19.69
2023-11-07T06:09:37.586Z,19.76
2023-11-07T06:12:25.444Z,19.70
2023-11-07T06:15:12.868Z,19.68
2023-11-07T06:18:00.058Z,19.66
2023-11-07T06:20:47.970Z,19.67
2023-11-07T06:23:35.115Z,19.66
2023-11-07T06:26:22.604Z,19.66
2023-11-07T06:29:14.505Z,19.68
2023-11-07T06:32:05.530Z,19.66
2023-11-07T06:34:53.080Z,19.67
2023-11-07T06:37:41.562Z,19.65
2023-11-07T06:40:28.149Z,18.67
2023-11-07T06:43:15.263Z,18.24
2023-11-07T06:46:01.527Z,17.60
2023-11-07T06:48:48.597Z,18.45
2023-11-07T06:51:36.931Z,18.99
2023-11-07T06:54:25.247Z,19.26
2023-11-07T06:57:14.022Z,19.42
2023-11-07T07:00:01.275Z,19.54
2023-11-07T07:02:50.028Z,19.63
2023-11-07T07:05:38.926Z,19.69
2023-11-07T07:08:25.703Z,19.74
2023-11-07T07:11:13.593Z,19.79
2023-11-07T07:14:00.972Z,19.86
2023-11-07T07:16:47.747Z,19.96
2023-11-07T07:19:39.175Z,20.11
2023-11-07T07:22:29.072Z,20.15
2023-11-07T07:25:17.533Z,20.19
2023-11-07T07:28:08.944Z,20.22
2023-11-07T07:31:00.502Z,20.24
2023-11-07T07:33:47.519Z,20.26
2023-11-07T07:36:44.222Z,20.27
2023-11-07T07:39:32.001Z,20.26
2023-11-07T07:42:20.414Z,20.26
2023-11-07T07:45:10.034Z,20.28
2023-11-07T07:47:58.499Z,20.26
2023-11-07T07:50:48.292Z,20.25
2023-11-07T07:53:39.328Z,20.26
2023-11-07T07:56:26.305Z,20.22
2023-11-07T07:59:14.109Z,20.26
2023-11-07T08:02:02.957Z,20.25
2023-11-07T08:04:50.532Z,20.26
2023-11-07T08:07:38.181Z,20.26
2023-11-07T08:10:27.815Z,20.26
2023-11-07T08:13:15.426Z,20.26
2023-11-07T08:16:12.388Z,20.26
2023-11-07T08:19:01.737Z,20.24
2023-11-07T08:21:48.576Z,20.26
2023-11-07T08:24:35.265Z,20.25
2023-11-07T08:27:23.300Z,20.24
2023-11-07T08:30:11.574Z,20.25
2023-11-07T08:33:01.042Z,20.24
2023-11-07T08:35:49.187Z,20.24
2023-11-07T08:38:35.459Z,20.25
2023-11-07T08:41:24.906Z,20.24
2023-11-07T08:44:11.289Z,20.25
2023-11-07T08:46:58.573Z,20.24
2023-11-07T08:49:46.888Z,20.24
2023-11-07T08:52:37.254Z,20.25
2023-11-07T08:55:26.863Z,20.29
2023-11-07T08:58:13.958Z,20.37
2023-11-07T09:01:02.466Z,20.37
2023-11-07T09:03:51.592Z,20.41
2023-11-07T09:06:41.291Z,20.45
2023-11-07T09:09:30.794Z,20.48
2023-11-07T09:12:17.614Z,20.50
2023-11-07T09:15:06.894Z,20.49
2023-11-07T09:17:54.170Z,20.49
2023-11-07T09:20:41.794Z,20.48
2023-11-07T09:23:30.822Z,20.42
2023-11-07T09:26:21.428Z,20.35
2023-11-07T09:29:09.480Z,20.29
2023-11-07T09:31:57.065Z,20.27
2023-11-07T09:34:43.752Z,20.27
2023-11-07T09:37:30.592Z,20.29
2023-11-07T09:40:23.536Z,20.30
2023-11-07T09:43:17.390Z,20.31
2023-11-07T09:46:04.882Z,20.33
2023-11-07T09:48:52.688Z,20.35
2023-11-07T09:51:41.287Z,20.34
2023-11-07T09:54:31.301Z,20.35
2023-11-07T09:57:19.404Z,20.36
2023-11-07T10:00:10.868Z,20.38
2023-11-07T10:02:59.590Z,20.35
2023-11-07T10:05:46.939Z,20.37
2023-11-07T10:08:33.800Z,20.38
2023-11-07T10:11:20.776Z,20.36
2023-11-07T10:14:10.446Z,20.38
2023-11-07T10:16:59.320Z,20.40
2023-11-07T10:19:45.684Z,20.39
2023-11-07T10:22:32.543Z,20.42
2023-11-07T10:25:28.853Z,20.45
2023-11-07T10:28:19.275Z,20.50
2023-11-07T10:31:19.035Z,20.60
2023-11-07T10:34:15.293Z,20.60
2023-11-07T10:37:02.785Z,20.59
2023-11-07T10:40:00.234Z,20.60
2023-11-07T10:42:49.148Z,20.58
2023-11-07T10:45:36.251Z,20.56
2023-11-07T10:48:24.369Z,20.60
2023-11-07T10:51:13.870Z,20.63
2023-11-07T10:54:00.986Z,20.63
2023-11-07T10:56:48.406Z,20.59
2023-11-07T10:59:36.458Z,20.56
2023-11-07T11:02:23.772Z,20.50
2023-11-07T11:05:15.415Z,20.49
2023-11-07T11:08:05.618Z,20.49
2023-11-07T11:10:53.884Z,20.59
2023-11-07T11:13:43.311Z,20.55
2023-11-07T11:16:30.648Z,20.45
2023-11-07T11:19:26.354Z,20.41
2023-11-07T11:22:18.397Z,20.39
2023-11-07T11:25:15.709Z,20.37
2023-11-07T11:28:03.303Z,20.37
2023-11-07T11:30:56.318Z,20.44
2023-11-07T11:33:46.342Z,20.40
2023-11-07T11:36:38.506Z,20.37
2023-11-07T11:39:44.102Z,20.38
2023-11-07T11:42:54.726Z,20.38
2023-11-07T11:45:46.833Z,20.39
2023-11-07T11:48:53.747Z,20.40
2023-11-07T11:51:41.894Z,20.39
2023-11-07T11:54:46.992Z,20.41
2023-11-07T11:57:35.448Z,20.42
2023-11-07T12:00:22.527Z,20.42
2023-11-07T12:03:17.242Z,20.42
2023-11-07T12:06:07.606Z,20.40
2023-11-07T12:08:54.315Z,20.41
2023-11-07T12:11:45.848Z,20.43
2023-11-07T12:14:34.482Z,20.44
2023-11-07T12:17:22.766Z,20.48
2023-11-07T12:20:12.846Z,20.52
2023-11-07T12:22:59.817Z,20.56
2023-11-07T12:25:53.405Z,20.59
2023-11-07T12:28:46.685Z,20.69
2023-11-07T12:31:40.017Z,20.73
2023-11-07T12:34:31.554Z,20.71
2023-11-07T12:37:18.724Z,20.71
2023-11-07T12:40:05.972Z,20.71
2023-11-07T12:42:54.041Z,20.72
2023-11-07T12:45:41.583Z,20.70
2023-11-07T12:48:30.028Z,20.68
2023-11-07T12:51:22.571Z,20.68
2023-11-07T12:54:09.233Z,20.69
2023-11-07T12:56:56.103Z,20.65
2023-11-07T12:59:58.789Z,20.70
2023-11-07T13:02:45.908Z,20.71
2023-11-07T13:05:34.382Z,20.65
2023-11-07T13:08:27.291Z,20.57
2023-11-07T13:11:15.781Z,20.49
2023-11-07T13:14:03.941Z,20.45
2023-11-07T13:16:52.344Z,20.43
2023-11-07T13:19:40.514Z,20.43
2023-11-07T13:22:29.383Z,20.43
2023-11-07T13:25:16.924Z,20.43
2023-11-07T13:28:05.546Z,20.44
2023-11-07T13:30:53.807Z,20.44
2023-11-07T13:33:44.567Z,20.44
2023-11-07T13:36:31.541Z,20.45
2023-11-07T13:39:24.765Z,20.44
2023-11-07T13:42:11.954Z,20.45
2023-11-07T13:44:58.591Z,20.45
2023-11-07T13:47:45.657Z,20.46
2023-11-07T13:50:33.333Z,20.47
2023-11-07T13:53:20.367Z,20.46
2023-11-07T13:56:15.538Z,20.46
2023-11-07T13:59:05.341Z,20.45
2023-11-07T14:01:52.958Z,20.47
2023-11-07T14:04:39.377Z,20.47
2023-11-07T14:07:27.120Z,20.55
2023-11-07T14:10:14.405Z,20.60
2023-11-07T14:13:02.796Z,20.58
2023-11-07T14:15:51.516Z,20.58
2023-11-07T14:18:39.452Z,20.63
2023-11-07T14:21:27.723Z,20.58
2023-11-07T14:24:14.224Z,20.60
2023-11-07T14:27:02.418Z,20.63
2023-11-07T14:30:08.418Z,20.66
2023-11-07T14:32:59.076Z,20.61
2023-11-07T14:35:46.641Z,20.63
2023-11-07T14:38:35.720Z,20.65
2023-11-07T14:41:24.958Z,20.66
2023-11-07T14:44:12.000Z,20.63
2023-11-07T14:46:59.624Z,20.66
2023-11-07T14:49:47.533Z,20.62
2023-11-07T14:52:34.956Z,20.61
2023-11-07T14:55:21.852Z,20.58
2023-11-07T14:58:10.634Z,20.55
2023-11-07T15:00:58.932Z,20.49
2023-11-07T15:03:48.532Z,20.47
2023-11-07T15:06:35.514Z,20.48
2023-11-07T15:09:22.951Z,20.45
2023-11-07T15:12:09.901Z,20.46
2023-11-07T15:14:57.133Z,20.45
2023-11-07T15:17:45.459Z,20.44
2023-11-07T15:20:33.603Z,20.42
2023-11-07T15:23:22.009Z,20.43
2023-11-07T15:26:09.677Z,20.42
2023-11-07T15:28:59.088Z,20.43
2023-11-07T15:31:45.835Z,20.42
2023-11-07T15:34:33.712Z,20.44
2023-11-07T15:37:21.693Z,20.42
2023-11-07T15:40:13.226Z,20.41
2023-11-07T15:43:00.136Z,20.44
2023-11-07T15:45:48.201Z,20.47
2023-11-07T15:48:35.404Z,20.51
2023-11-07T15:51:22.255Z,20.51
2023-11-07T15:54:10.909Z,20.49
2023-11-07T15:56:57.948Z,20.55
2023-11-07T15:59:46.809Z,20.46
2023-11-07T16:02:34.750Z,20.39
2023-11-07T16:05:27.801Z,20.37
2023-11-07T16:08:16.353Z,20.38
2023-11-07T16:11:05.407Z,20.40
2023-11-07T16:13:51.719Z,20.44
2023-11-07T16:16:39.602Z,20.45
2023-11-07T16:19:29.851Z,20.51
2023-11-07T16:22:18.623Z,20.48
2023-11-07T16:25:05.554Z,20.49
2023-11-07T16:27:54.514Z,20.51
2023-11-07T16:30:41.376Z,20.47
2023-11-07T16:33:27.750Z,20.41
2023-11-07T16:36:14.977Z,20.45
2023-11-07T16:39:01.731Z,20.43
2023-11-07T16:41:49.661Z,20.46
2023-11-07T16:44:40.870Z,20.49
2023-11-07T16:47:29.637Z,20.44
2023-11-07T16:50:16.518Z,20.41
2023-11-07T16:53:03.257Z,20.43
2023-11-07T16:55:50.243Z,20.45
2023-11-07T16:58:37.763Z,20.47
2023-11-07T17:01:25.686Z,20.47
2023-11-07T17:04:12.772Z,20.48
2023-11-07T17:07:00.044Z,20.48
2023-11-07T17:09:46.684Z,20.48
2023-11-07T17:12:34.398Z,20.47
2023-11-07T17:15:22.117Z,20.47
2023-11-07T17:18:11.191Z,20.47
2023-11-07T17:20:57.733Z,20.48
2023-11-07T17:23:44.660Z,20.47
2023-11-07T17:26:33.801Z,20.44
2023-11-07T17:29:22.657Z,20.45
2023-11-07T17:32:10.714Z,20.43
2023-11-07T17:35:04.479Z,20.45
2023-11-07T17:37:51.231Z,20.45
2023-11-07T17:40:38.632Z,20.46
2023-11-07T17:43:26.022Z,20.44
2023-11-07T17:46:12.593Z,20.46
2023-11-07T17:48:59.258Z,20.44
2023-11-07T17:51:47.687Z,20.46
2023-11-07T17:54:36.471Z,20.44
2023-11-07T17:57:22.808Z,20.45
2023-11-07T18:00:11.084Z,20.43
2023-11-07T18:03:01.871Z,20.39
2023-11-07T18:05:48.472Z,20.40
2023-11-07T18:08:36.625Z,20.38
2023-11-07T18:11:25.084Z,20.41
2023-11-07T18:14:12.911Z,20.42
2023-11-07T18:17:04.645Z,20.39
2023-11-07T18:19:51.254Z,20.46
2023-11-07T18:22:39.705Z,20.46
2023-11-07T18:25:28.210Z,20.48
2023-11-07T18:28:16.780Z,20.49
2023-11-07T18:31:03.755Z,20.38
2023-11-07T18:33:51.287Z,20.33
2023-11-07T18:36:39.623Z,20.42
2023-11-07T18:39:26.169Z,20.43
2023-11-07T18:42:15.896Z,20.36
2023-11-07T18:45:11.339Z,20.42
2023-11-07T18:47:59.414Z,20.43
2023-11-07T18:50:49.488Z,20.38
2023-11-07T18:53:43.547Z,20.36
2023-11-07T18:56:34.690Z,20.37
2023-11-07T18:59:31.843Z,20.35
2023-11-07T19:02:25.268Z,20.36
2023-11-07T19:05:12.928Z,20.39
2023-11-07T19:08:00.526Z,20.42
2023-11-07T19:10:49.012Z,20.40
2023-11-07T19:13:35.810Z,20.37
2023-11-07T19:16:23.943Z,20.38
2023-11-07T19:19:11.159Z,20.34
2023-11-07T19:21:59.789Z,20.36
2023-11-07T19:24:46.393Z,20.32
2023-11-07T19:27:36.132Z,20.33
2023-11-07T19:30:24.029Z,20.33
2023-11-07T19:33:13.250Z,20.34
2023-11-07T19:36:02.453Z,20.32
2023-11-07T19:38:51.040Z,20.33
2023-11-07T19:41:38.895Z,20.32
2023-11-07T19:44:27.264Z,20.34
2023-11-07T19:47:16.989Z,20.31
2023-11-07T19:50:08.429Z,20.32
2023-11-07T19:53:02.529Z,20.38
2023-11-07T19:55:57.282Z,20.36
2023-11-07T19:58:57.875Z,20.37
2023-11-07T20:01:47.932Z,20.37
2023-11-07T20:04:36.150Z,20.39
2023-11-07T20:07:25.053Z,20.37
2023-11-07T20:10:12.570Z,20.35
2023-11-07T20:13:01.889Z,20.31
2023-11-07T20:15:49.610Z,20.29
2023-11-07T20:18:36.620Z,20.28
2023-11-07T20:21:26.313Z,20.25
2023-11-07T20:24:14.751Z,20.27
2023-11-07T20:27:01.912Z,20.27
2023-11-07T20:29:48.844Z,20.27
2023-11-07T20:32:37.372Z,20.27
2023-11-07T20:35:25.165Z,20.31
2023-11-07T20:38:16.339Z,20.29
2023-11-07T20:41:08.693Z,20.27
2023-11-07T20:43:58.016Z,20.30
2023-11-07T20:46:46.245Z,20.30
2023-11-07T20:49:43.997Z,20.31
2023-11-07T20:52:34.465Z,20.28
2023-11-07T20:55:27.589Z,20.14
2023-11-07T20:58:16.229Z,19.60
2023-11-07T21:01:03.809Z,19.42
2023-11-07T21:03:51.425Z,19.35
2023-11-07T21:06:38.484Z,16.40
2023-11-07T21:09:25.408Z,14.67
2023-11-07T21:12:13.776Z,14.27
2023-11-07T21:15:02.755Z,13.41
2023-11-07T21:17:49.530Z,13.86
2023-11-07T21:20:39.239Z,13.48
2023-11-07T21:23:26.379Z,13.32
2023-11-07T21:26:14.494Z,13.21
2023-11-07T21:29:01.860Z,12.89
2023-11-07T21:31:53.403Z,14.81
2023-11-07T21:34:43.677Z,16.29
2023-11-07T21:37:30.212Z,16.98
2023-11-07T21:40:17.375Z,17.44
2023-11-07T21:43:03.841Z,17.65
2023-11-07T21:45:52.755Z,17.82
2023-11-07T21:48:40.976Z,17.96
2023-11-07T21:51:28.088Z,18.04
2023-11-07T21:54:16.634Z,18.12
2023-11-07T21:57:05.850Z,18.20
2023-11-07T21:59:53.559Z,18.29
2023-11-07T22:02:40.262Z,18.34
2023-11-07T22:05:29.378Z,18.39
2023-11-07T22:08:16.530Z,18.43
2023-11-07T22:11:03.167Z,18.49
2023-11-07T22:13:50.446Z,18.53
2023-11-07T22:16:37.832Z,18.59
2023-11-07T22:19:25.766Z,18.63
2023-11-07T22:22:15.194Z,18.64
2023-11-07T22:25:02.398Z,18.68
2023-11-07T22:27:50.607Z,18.70
2023-11-07T22:30:37.678Z,18.76
2023-11-07T22:33:25.604Z,18.83
2023-11-07T22:36:12.402Z,18.87
2023-11-07T22:39:00.466Z,18.89
2023-11-07T22:41:51.479Z,18.92
2023-11-07T22:44:38.539Z,18.94
2023-11-07T22:47:25.387Z,18.98
2023-11-07T22:50:12.410Z,19.00
2023-11-07T22:53:01.535Z,19.03
2023-11-07T22:55:49.653Z,19.06
2023-11-07T22:58:38.529Z,19.11
2023-11-07T23:01:26.182Z,19.15
2023-11-07T23:04:13.759Z,19.03
2023-11-07T23:07:02.410Z,19.11
2023-11-07T23:09:57.245Z,19.18
2023-11-07T23:12:46.793Z,19.21
2023-11-07T23:15:34.242Z,19.26
2023-11-07T23:18:22.654Z,19.23
2023-11-07T23:21:10.154Z,19.22
2023-11-07T23:23:58.047Z,19.24
2023-11-07T23:26:48.813Z,19.18
2023-11-07T23:29:37.675Z,19.22
2023-11-07T23:32:24.151Z,19.21
2023-11-07T23:35:12.513Z,19.23
2023-11-07T23:37:59.338Z,19.21
2023-11-07T23:40:46.795Z,19.20
2023-11-07T23:43:34.519Z,19.17
2023-11-07T23:46:25.397Z,19.14
2023-11-07T23:49:12.137Z,19.15
2023-11-07T23:51:59.433Z,19.14
2023-11-07T23:54:46.851Z,19.18
2023-11-07T23:57:35.138Z,19.20
